CW8267 Weather Reports


Display with metric or nautical units.
time (UTC)temp
F
wind
direction
speed
MPH
gust
MPH
rain 1hr
in
rain 24hr
in
rain mn
in
humidity
%
barometer
mb
20210918194948 94 312 7.0 10.0 0.00 0.00 0.00 52 994.9
20210918194448 94 333 8.0 12.0 0.00 0.00 0.00 51 994.9
20210918193947 94 347 7.0 9.0 0.00 0.00 0.00 52 995.3
20210918193447 94 298 7.0 9.0 0.00 0.00 0.00 53 995.3
20210918191948 94 338 7.0 10.0 0.00 0.00 0.00 53 995.3
20210918190448 95 45 6.0 10.0 0.00 0.00 0.00 52 995.9
20210918184948 96 78 4.0 8.0 0.00 0.00 0.00 50 996.1
20210918183448 95 90 6.0 10.0 0.00 0.00 0.00 51 996.4
20210918181948 94 112 5.0 8.0 0.00 0.00 0.00 53 996.6
20210918181448 93 350 7.0 10.0 0.00 0.00 0.00 55 996.9
20210918180947 93 22 6.0 10.0 0.00 0.00 0.00 55 996.9
20210918180447 93 34 6.0 9.0 0.00 0.00 0.00 55 996.9
20210918171947 89 23 9.0 12.0 0.00 0.00 0.00 61 997.5
20210918171448 90 332 7.0 10.0 0.00 0.00 0.00 60 997.5
20210918170948 90 329 6.0 8.0 0.00 0.00 0.00 60 997.5
20210918170448 92 308 5.0 8.0 0.00 0.00 0.00 58 997.6
20210918164948 93 9 2.0 6.0 0.00 0.00 0.00 59 997.7
20210918164448 92 295 5.0 6.0 0.00 0.00 0.00 59 997.7
20210918163947 95 10 3.0 5.0 0.00 0.00 0.00 56 997.7
20210918163448 95 210 3.0 7.0 0.00 0.00 0.00 55 997.7
20210918161448 91 297 5.0 7.0 0.00 0.00 0.00 62 997.8
20210918160948 91 327 2.0 3.0 0.00 0.00 0.00 62 997.8
20210918160447 89 273 4.0 7.0 0.00 0.00 0.00 65 997.7
20210918154948 88 300 3.0 6.0 0.00 0.00 0.00 65 997.8
20210918154448 89 318 5.0 6.0 0.00 0.00 0.00 64 997.8
20210918153947 90 313 3.0 6.0 0.00 0.00 0.00 62 997.6
20210918153447 90 282 3.0 6.0 0.00 0.00 0.00 64 997.6
20210918151447 88 44 2.0 5.0 0.00 0.00 0.00 68 997.5
20210918150948 88 271 2.0 3.0 0.00 0.00 0.00 67 997.5
20210918150447 86 292 3.0 5.0 0.00 0.00 0.00 70 997.5
20210918144448 85 299 2.0 5.0 0.00 0.00 0.00 72 997.6
20210918143947 86 309 1.0 2.0 0.00 0.00 0.00 72 997.5
20210918143448 85 112 2.0 5.0 0.00 0.00 0.00 73 997.5
20210918141447 88 257 1.0 2.0 0.00 0.00 0.00 71 997.5
20210918140948 87 190 1.0 2.0 0.00 0.00 0.00 72 997.5
20210918134948 83 235 0.0 0.0 0.00 0.00 0.00 77 997.6
20210918134448 82 315 0.0 0.0 0.00 0.00 0.00 80 997.6
20210918133948 81 315 0.0 0.0 0.00 0.00 0.00 81 997.6
20210918133448 80 328 0.0 2.0 0.00 0.00 0.00 83 997.6
20210918131948 78 248 0.0 0.0 0.00 0.00 0.00 87 997.7
20210918131447 77 270 0.0 0.0 0.00 0.00 0.00 90 997.7
20210918130448 75 270 0.0 0.0 0.00 0.00 0.00 93 997.6
20210918124948 73 280 0.0 0.0 0.00 0.00 0.00 98 997.6
20210918123948 72 298 1.0 2.0 0.00 0.00 0.00 99 997.5
20210918121948 72 328 0.0 0.0 0.00 0.00 0.00 99 997.3
20210918120948 72 0 0.0 0.0 0.00 0.00 0.00 98 997.3
20210918114948 72 48 3.0 6.0 0.00 0.00 0.00 96 997.2
20210918113947 72 339 2.0 3.0 0.00 0.00 0.00 96 997.1
20210918111947 72 31 2.0 3.0 0.00 0.00 0.00 96 997.1
20210918111448 72 21 1.0 1.0 0.00 0.00 0.00 96 996.9
20210918110448 72 46 1.0 3.0 0.00 0.00 0.00 95 996.8
20210918104948 72 326 2.0 2.0 0.00 0.00 0.00 95 996.6
20210918104448 72 15 2.0 3.0 0.00 0.00 0.00 95 996.6
20210918103948 72 316 2.0 5.0 0.00 0.00 0.00 95 996.5
20210918101948 72 292 3.0 3.0 0.00 0.00 0.00 96 996.5
20210918100949 72 270 0.0 0.0 0.00 0.00 0.00 96 996.4
20210918094948 73 270 0.0 0.0 0.00 0.00 0.00 95 996.2
20210918094448 73 270 1.0 1.0 0.00 0.00 0.00 95 996.2
20210918093447 73 10 1.0 2.0 0.00 0.00 0.00 94 996.0
20210918090448 73 112 2.0 2.0 0.00 0.00 0.00 94 996.2
20210918084948 73 77 0.0 1.0 0.00 0.00 0.00 93 996.2
20210918084449 73 45 0.0 1.0 0.00 0.00 0.00 92 996.2
20210918083948 74 2 2.0 3.0 0.00 0.00 0.00 92 996.1
20210918083449 73 338 2.0 2.0 0.00 0.00 0.00 93 996.1
20210918081948 73 270 0.0 0.0 0.00 0.00 0.00 93 996.1
20210918081447 73 283 0.0 0.0 0.00 0.00 0.00 93 996.1
20210918080948 73 292 0.0 0.0 0.00 0.00 0.00 92 996.1
20210918080447 73 292 0.0 2.0 0.00 0.00 0.00 92 996.2
20210918074948 74 270 1.0 2.0 0.00 0.00 0.00 91 996.2
20210918074448 74 292 0.0 0.0 0.00 0.00 0.00 90 996.2
20210918073948 74 41 0.0 0.0 0.00 0.00 0.00 90 996.2
20210918073448 74 357 0.0 1.0 0.00 0.00 0.00 89 996.2
20210918071949 75 22 0.0 1.0 0.00 0.00 0.00 87 996.2
20210918071447 75 17 0.0 1.0 0.00 0.00 0.00 87 996.2
20210918070949 75 309 2.0 2.0 0.00 0.00 0.00 86 996.2
20210918070448 75 345 1.0 2.0 0.00 0.00 0.00 86 996.1
20210918064447 75 31 0.0 0.0 0.00 0.00 0.00 85 996.1
20210918063948 75 112 0.0 0.0 0.00 0.00 0.00 85 996.0
20210918061448 76 23 0.0 1.0 0.00 0.00 0.00 83 996.2
20210918060948 76 25 0.0 2.0 0.00 0.00 0.00 83 996.2
20210918060449 76 280 1.0 3.0 0.00 0.00 0.00 82 996.2
20210918054948 77 356 2.0 2.0 0.00 0.00 0.00 81 996.2
20210918054447 77 4 2.0 2.0 0.00 0.00 0.00 81 996.2
20210918053948 77 22 2.0 3.0 0.00 0.00 0.00 81 996.1
20210918053448 77 35 2.0 2.0 0.00 0.00 0.00 81 996.1
20210918051947 77 36 1.0 1.0 0.00 0.00 0.00 80 996.2
20210918051448 78 45 1.0 2.0 0.00 0.00 0.00 80 996.2
20210918050948 78 27 0.0 1.0 0.00 0.00 0.00 80 996.2
20210918050448 78 12 0.0 2.0 0.00 0.00 0.00 79 996.2
20210918044947 78 35 0.0 0.0 0.00 0.00 0.00 78 996.0
20210918043948 79 237 0.0 2.0 0.00 0.00 0.00 77 996.0
20210918041948 79 10 2.0 3.0 0.00 0.00 0.00 77 996.2
20210918041448 79 34 1.0 2.0 0.00 0.00 0.00 77 996.0
20210918034448 80 352 0.0 0.0 0.00 0.00 0.00 76 995.8
20210918033948 80 4 0.0 0.0 0.00 0.00 0.00 75 995.9
20210918031948 80 90 0.0 0.0 0.00 0.00 0.00 74 995.7
20210918031447 80 327 0.0 1.0 0.00 0.00 0.00 74 995.8
20210918030948 81 310 0.0 2.0 0.00 0.00 0.00 74 995.8
20210918030448 81 347 2.0 5.0 0.00 0.00 0.00 74 995.7
20210918024948 81 2 0.0 2.0 0.00 0.00 0.00 73 995.6
20210918024448 81 34 2.0 3.0 0.00 0.00 0.00 72 995.6
20210918023947 81 4 2.0 2.0 0.00 0.00 0.00 72 995.4
20210918021948 82 21 1.0 2.0 0.00 0.00 0.00 70 995.2
20210918021448 82 25 2.0 2.0 0.00 0.00 0.00 70 994.9
20210918020947 82 22 2.0 3.0 0.00 0.00 0.00 69 994.9
20210918020448 83 315 2.0 3.0 0.00 0.00 0.00 69 994.8
20210918014947 83 25 2.0 3.0 0.00 0.00 0.00 68 994.6
20210918014448 83 1 2.0 3.0 0.00 0.00 0.00 67 994.6
20210918013448 84 22 3.0 5.0 0.00 0.00 0.00 67 994.3
20210918011948 85 10 3.0 3.0 0.00 0.00 0.00 65 994.1
20210918011447 85 349 2.0 5.0 0.00 0.00 0.00 65 994.1
20210918010948 85 36 2.0 5.0 0.00 0.00 0.00 64 994.1
20210918010447 85 13 3.0 6.0 0.00 0.00 0.00 63 994.0
20210918004948 86 65 3.0 5.0 0.00 0.00 0.00 61 993.9
20210918004448 86 22 3.0 5.0 0.00 0.00 0.00 60 993.9
20210918003447 87 13 3.0 5.0 0.00 0.00 0.00 59 993.9
20210918001947 88 1 4.0 6.0 0.00 0.00 0.00 58 993.8
20210918001448 88 9 3.0 6.0 0.00 0.00 0.00 57 993.8
20210917234947 90 27 5.0 7.0 0.00 0.00 0.00 55 993.8
20210917234448 90 9 5.0 9.0 0.00 0.00 0.00 54 993.8
20210917233447 91 66 6.0 9.0 0.00 0.00 0.00 54 993.8
20210917231949 91 335 6.0 9.0 0.00 0.00 0.00 54 993.7
20210917231447 91 1 6.0 10.0 0.00 0.00 0.00 53 993.5
20210917230449 91 32 5.0 10.0 0.00 0.00 0.00 53 993.6
20210917224447 92 67 5.0 8.0 0.00 0.00 0.00 52 993.6
20210917223947 92 356 3.0 7.0 0.00 0.00 0.00 52 993.5
20210917221447 91 105 6.0 9.0 0.00 0.00 0.00 52 993.4
20210917220949 92 36 6.0 9.0 0.00 0.00 0.00 53 993.4
20210917220448 92 42 5.0 12.0 0.00 0.00 0.00 53 993.5
20210917214948 91 345 7.0 9.0 0.00 0.00 0.00 51 993.4
20210917213448 93 38 5.0 10.0 0.00 0.00 0.00 51 993.5
20210917211947 92 302 7.0 9.0 0.00 0.00 0.00 52 993.5
20210917211447 94 76 5.0 9.0 0.00 0.00 0.00 51 993.5
20210917210948 93 58 4.0 7.0 0.00 0.00 0.00 51 993.5
20210917210448 92 301 8.0 10.0 0.00 0.00 0.00 51 993.4
20210917204947 93 91 4.0 9.0 0.00 0.00 0.00 51 993.6
20210917203949 93 45 6.0 10.0 0.00 0.00 0.00 52 993.7
20210917203448 92 31 7.0 9.0 0.00 0.00 0.00 53 993.7
20210917201948 90 45 7.0 12.0 0.00 0.00 0.00 55 993.8
20210917201449 92 64 6.0 12.0 0.00 0.00 0.00 54 993.9
20210917200948 91 315 5.0 7.0 0.00 0.00 0.00 54 993.9
20210917200447 92 3 5.0 9.0 0.00 0.00 0.00 53 994.0